sensor_id;sensor_type;location;lat;lon;timestamp;P1;durP1;ratioP1;P2;durP2;ratioP2
4921;SDS011;16625;53.624;10.106;2022-09-09T00:00:49;91.53;;;36.13;;
4921;SDS011;16625;53.624;10.106;2022-09-09T00:03:22;79.17;;;32.00;;
4921;SDS011;16625;53.624;10.106;2022-09-09T00:05:55;96.37;;;34.87;;
4921;SDS011;16625;53.624;10.106;2022-09-09T00:08:32;86.97;;;37.20;;
4921;SDS011;16625;53.624;10.106;2022-09-09T00:11:09;90.53;;;32.23;;
4921;SDS011;16625;53.624;10.106;2022-09-09T00:13:41;113.57;;;35.80;;
4921;SDS011;16625;53.624;10.106;2022-09-09T00:16:15;86.50;;;32.03;;
4921;SDS011;16625;53.624;10.106;2022-09-09T00:18:48;88.97;;;33.60;;
4921;SDS011;16625;53.624;10.106;2022-09-09T00:21:22;90.40;;;34.57;;
4921;SDS011;16625;53.624;10.106;2022-09-09T00:23:57;111.87;;;36.13;;
4921;SDS011;16625;53.624;10.106;2022-09-09T00:26:29;263.77;;;40.30;;
4921;SDS011;16625;53.624;10.106;2022-09-09T00:29:03;199.07;;;37.67;;
4921;SDS011;16625;53.624;10.106;2022-09-09T00:31:38;172.23;;;34.93;;
4921;SDS011;16625;53.624;10.106;2022-09-09T00:34:09;110.03;;;33.70;;
4921;SDS011;16625;53.624;10.106;2022-09-09T00:36:39;110.73;;;33.40;;
4921;SDS011;16625;53.624;10.106;2022-09-09T00:39:09;266.40;;;38.00;;
4921;SDS011;16625;53.624;10.106;2022-09-09T00:41:47;107.20;;;30.17;;
4921;SDS011;16625;53.624;10.106;2022-09-09T00:44:22;165.23;;;32.80;;
4921;SDS011;16625;53.624;10.106;2022-09-09T00:46:59;154.37;;;34.57;;
4921;SDS011;16625;53.624;10.106;2022-09-09T00:49:49;117.67;;;31.93;;
4921;SDS011;16625;53.624;10.106;2022-09-09T00:52:29;102.27;;;30.30;;
4921;SDS011;16625;53.624;10.106;2022-09-09T00:55:04;144.53;;;29.33;;
4921;SDS011;16625;53.624;10.106;2022-09-09T00:57:38;73.80;;;27.40;;
4921;SDS011;16625;53.624;10.106;2022-09-09T01:00:17;83.93;;;31.93;;
4921;SDS011;16625;53.624;10.106;2022-09-09T01:02:50;157.33;;;33.27;;
4921;SDS011;16625;53.624;10.106;2022-09-09T01:05:25;114.20;;;27.90;;
4921;SDS011;16625;53.624;10.106;2022-09-09T01:08:00;65.50;;;25.60;;
4921;SDS011;16625;53.624;10.106;2022-09-09T01:10:30;77.87;;;29.50;;
4921;SDS011;16625;53.624;10.106;2022-09-09T01:13:11;56.53;;;26.50;;
4921;SDS011;16625;53.624;10.106;2022-09-09T01:15:46;87.00;;;24.20;;
4921;SDS011;16625;53.624;10.106;2022-09-09T01:18:15;50.60;;;23.73;;
4921;SDS011;16625;53.624;10.106;2022-09-09T01:20:45;44.03;;;21.60;;
4921;SDS011;16625;53.624;10.106;2022-09-09T01:23:24;47.70;;;23.27;;
4921;SDS011;16625;53.624;10.106;2022-09-09T01:26:18;40.47;;;22.00;;
4921;SDS011;16625;53.624;10.106;2022-09-09T01:28:50;48.60;;;23.20;;
4921;SDS011;16625;53.624;10.106;2022-09-09T01:31:19;52.33;;;24.50;;
4921;SDS011;16625;53.624;10.106;2022-09-09T01:33:48;59.87;;;23.97;;
4921;SDS011;16625;53.624;10.106;2022-09-09T01:36:17;42.20;;;20.17;;
4921;SDS011;16625;53.624;10.106;2022-09-09T01:38:50;44.37;;;22.47;;
4921;SDS011;16625;53.624;10.106;2022-09-09T01:41:19;41.27;;;21.63;;
4921;SDS011;16625;53.624;10.106;2022-09-09T01:43:46;48.73;;;23.00;;
4921;SDS011;16625;53.624;10.106;2022-09-09T01:46:14;54.63;;;23.70;;
4921;SDS011;16625;53.624;10.106;2022-09-09T01:48:42;50.90;;;23.10;;
4921;SDS011;16625;53.624;10.106;2022-09-09T01:51:10;40.83;;;22.70;;
4921;SDS011;16625;53.624;10.106;2022-09-09T01:53:38;52.80;;;22.50;;
4921;SDS011;16625;53.624;10.106;2022-09-09T01:56:10;48.03;;;23.80;;
4921;SDS011;16625;53.624;10.106;2022-09-09T01:59:00;55.27;;;22.47;;
4921;SDS011;16625;53.624;10.106;2022-09-09T02:01:41;55.27;;;21.37;;
4921;SDS011;16625;53.624;10.106;2022-09-09T02:04:18;59.80;;;23.80;;
4921;SDS011;16625;53.624;10.106;2022-09-09T02:06:56;49.53;;;23.97;;
4921;SDS011;16625;53.624;10.106;2022-09-09T02:09:23;62.67;;;23.00;;
4921;SDS011;16625;53.624;10.106;2022-09-09T02:11:55;57.40;;;23.70;;
4921;SDS011;16625;53.624;10.106;2022-09-09T02:14:28;44.87;;;22.17;;
4921;SDS011;16625;53.624;10.106;2022-09-09T02:17:01;54.23;;;22.33;;
4921;SDS011;16625;53.624;10.106;2022-09-09T02:19:34;48.73;;;23.40;;
4921;SDS011;16625;53.624;10.106;2022-09-09T02:22:05;55.00;;;24.37;;
4921;SDS011;16625;53.624;10.106;2022-09-09T02:24:34;43.50;;;22.00;;
4921;SDS011;16625;53.624;10.106;2022-09-09T02:27:06;51.97;;;24.40;;
4921;SDS011;16625;53.624;10.106;2022-09-09T02:29:35;52.37;;;22.00;;
4921;SDS011;16625;53.624;10.106;2022-09-09T02:32:06;56.57;;;22.90;;
4921;SDS011;16625;53.624;10.106;2022-09-09T02:34:35;85.30;;;23.30;;
4921;SDS011;16625;53.624;10.106;2022-09-09T02:37:10;54.43;;;21.53;;
4921;SDS011;16625;53.624;10.106;2022-09-09T02:39:38;38.17;;;20.63;;
4921;SDS011;16625;53.624;10.106;2022-09-09T02:42:06;75.90;;;21.93;;
4921;SDS011;16625;53.624;10.106;2022-09-09T02:44:33;60.93;;;22.33;;
4921;SDS011;16625;53.624;10.106;2022-09-09T02:47:07;62.47;;;23.70;;
4921;SDS011;16625;53.624;10.106;2022-09-09T02:49:43;53.30;;;22.47;;
4921;SDS011;16625;53.624;10.106;2022-09-09T02:52:21;39.87;;;21.20;;
4921;SDS011;16625;53.624;10.106;2022-09-09T02:54:57;57.20;;;22.30;;
4921;SDS011;16625;53.624;10.106;2022-09-09T02:57:34;54.50;;;21.67;;
4921;SDS011;16625;53.624;10.106;2022-09-09T03:00:03;40.20;;;19.53;;
4921;SDS011;16625;53.624;10.106;2022-09-09T03:02:30;42.10;;;20.97;;
4921;SDS011;16625;53.624;10.106;2022-09-09T03:04:57;36.17;;;21.07;;
4921;SDS011;16625;53.624;10.106;2022-09-09T03:07:24;49.33;;;23.53;;
4921;SDS011;16625;53.624;10.106;2022-09-09T03:09:54;52.77;;;22.83;;
4921;SDS011;16625;53.624;10.106;2022-09-09T03:12:21;46.83;;;20.50;;
4921;SDS011;16625;53.624;10.106;2022-09-09T03:14:49;50.00;;;24.30;;
4921;SDS011;16625;53.624;10.106;2022-09-09T03:17:16;51.23;;;22.50;;
4921;SDS011;16625;53.624;10.106;2022-09-09T03:19:43;41.80;;;20.80;;
4921;SDS011;16625;53.624;10.106;2022-09-09T03:22:10;45.70;;;21.27;;
4921;SDS011;16625;53.624;10.106;2022-09-09T03:24:38;42.17;;;21.07;;
4921;SDS011;16625;53.624;10.106;2022-09-09T03:27:05;42.40;;;20.07;;
4921;SDS011;16625;53.624;10.106;2022-09-09T03:29:32;48.00;;;21.60;;
4921;SDS011;16625;53.624;10.106;2022-09-09T03:32:00;51.87;;;22.47;;
4921;SDS011;16625;53.624;10.106;2022-09-09T03:34:27;39.93;;;21.40;;
4921;SDS011;16625;53.624;10.106;2022-09-09T03:36:54;35.37;;;20.57;;
4921;SDS011;16625;53.624;10.106;2022-09-09T03:39:21;58.23;;;22.60;;
4921;SDS011;16625;53.624;10.106;2022-09-09T03:41:48;45.20;;;20.93;;
4921;SDS011;16625;53.624;10.106;2022-09-09T03:44:15;42.07;;;21.03;;
4921;SDS011;16625;53.624;10.106;2022-09-09T03:46:42;44.50;;;19.73;;
4921;SDS011;16625;53.624;10.106;2022-09-09T03:49:10;38.23;;;21.20;;
4921;SDS011;16625;53.624;10.106;2022-09-09T03:51:37;42.83;;;21.30;;
4921;SDS011;16625;53.624;10.106;2022-09-09T03:54:04;41.50;;;21.17;;
4921;SDS011;16625;53.624;10.106;2022-09-09T03:56:33;43.40;;;21.50;;
4921;SDS011;16625;53.624;10.106;2022-09-09T03:59:00;39.60;;;22.10;;
4921;SDS011;16625;53.624;10.106;2022-09-09T04:01:27;51.73;;;22.20;;
4921;SDS011;16625;53.624;10.106;2022-09-09T04:03:54;49.43;;;21.83;;
4921;SDS011;16625;53.624;10.106;2022-09-09T04:06:24;39.13;;;21.67;;
4921;SDS011;16625;53.624;10.106;2022-09-09T04:08:51;42.67;;;22.43;;
4921;SDS011;16625;53.624;10.106;2022-09-09T04:11:18;50.83;;;20.40;;
4921;SDS011;16625;53.624;10.106;2022-09-09T04:13:45;43.67;;;22.10;;
4921;SDS011;16625;53.624;10.106;2022-09-09T04:16:12;43.80;;;20.13;;
4921;SDS011;16625;53.624;10.106;2022-09-09T04:18:39;59.60;;;21.07;;
4921;SDS011;16625;53.624;10.106;2022-09-09T04:21:07;41.30;;;20.83;;
4921;SDS011;16625;53.624;10.106;2022-09-09T04:23:36;40.03;;;20.90;;
4921;SDS011;16625;53.624;10.106;2022-09-09T04:26:03;44.40;;;21.53;;
4921;SDS011;16625;53.624;10.106;2022-09-09T04:28:31;41.43;;;21.20;;
4921;SDS011;16625;53.624;10.106;2022-09-09T04:31:03;43.63;;;20.37;;
4921;SDS011;16625;53.624;10.106;2022-09-09T04:33:31;39.43;;;21.07;;
4921;SDS011;16625;53.624;10.106;2022-09-09T04:35:58;41.63;;;20.80;;
4921;SDS011;16625;53.624;10.106;2022-09-09T04:38:25;38.27;;;20.07;;
4921;SDS011;16625;53.624;10.106;2022-09-09T04:40:53;38.03;;;19.93;;
4921;SDS011;16625;53.624;10.106;2022-09-09T04:43:20;38.70;;;19.70;;
4921;SDS011;16625;53.624;10.106;2022-09-09T04:45:50;37.17;;;19.50;;
4921;SDS011;16625;53.624;10.106;2022-09-09T04:48:17;33.63;;;19.33;;
4921;SDS011;16625;53.624;10.106;2022-09-09T04:50:53;48.03;;;21.53;;
4921;SDS011;16625;53.624;10.106;2022-09-09T04:53:20;40.60;;;19.50;;
4921;SDS011;16625;53.624;10.106;2022-09-09T04:55:47;40.53;;;20.70;;
4921;SDS011;16625;53.624;10.106;2022-09-09T04:58:16;42.80;;;19.97;;
4921;SDS011;16625;53.624;10.106;2022-09-09T05:00:43;37.37;;;20.33;;
4921;SDS011;16625;53.624;10.106;2022-09-09T05:03:10;45.23;;;20.50;;
4921;SDS011;16625;53.624;10.106;2022-09-09T05:05:37;43.13;;;19.87;;
4921;SDS011;16625;53.624;10.106;2022-09-09T05:08:05;49.60;;;22.00;;
4921;SDS011;16625;53.624;10.106;2022-09-09T05:10:33;35.23;;;19.63;;
4921;SDS011;16625;53.624;10.106;2022-09-09T05:13:02;34.50;;;20.50;;
4921;SDS011;16625;53.624;10.106;2022-09-09T05:15:31;48.60;;;21.47;;
4921;SDS011;16625;53.624;10.106;2022-09-09T05:17:58;36.73;;;19.73;;
4921;SDS011;16625;53.624;10.106;2022-09-09T05:20:25;43.17;;;21.00;;
4921;SDS011;16625;53.624;10.106;2022-09-09T05:22:52;39.60;;;20.10;;
4921;SDS011;16625;53.624;10.106;2022-09-09T05:25:19;37.83;;;20.27;;
4921;SDS011;16625;53.624;10.106;2022-09-09T05:27:47;26.30;;;16.20;;
4921;SDS011;16625;53.624;10.106;2022-09-09T05:30:14;31.80;;;17.50;;
4921;SDS011;16625;53.624;10.106;2022-09-09T05:32:43;29.40;;;17.70;;
4921;SDS011;16625;53.624;10.106;2022-09-09T05:35:10;29.67;;;16.90;;
4921;SDS011;16625;53.624;10.106;2022-09-09T05:37:38;27.13;;;16.93;;
4921;SDS011;16625;53.624;10.106;2022-09-09T05:40:05;31.90;;;16.87;;
4921;SDS011;16625;53.624;10.106;2022-09-09T05:42:32;30.87;;;18.17;;
4921;SDS011;16625;53.624;10.106;2022-09-09T05:44:59;32.27;;;16.73;;
4921;SDS011;16625;53.624;10.106;2022-09-09T05:47:26;31.50;;;17.47;;
4921;SDS011;16625;53.624;10.106;2022-09-09T05:49:55;23.77;;;16.20;;
4921;SDS011;16625;53.624;10.106;2022-09-09T05:52:22;28.90;;;16.87;;
4921;SDS011;16625;53.624;10.106;2022-09-09T05:54:50;29.33;;;16.23;;
4921;SDS011;16625;53.624;10.106;2022-09-09T05:57:17;26.87;;;17.03;;
4921;SDS011;16625;53.624;10.106;2022-09-09T05:59:44;29.33;;;16.87;;
4921;SDS011;16625;53.624;10.106;2022-09-09T06:02:11;35.50;;;15.80;;
4921;SDS011;16625;53.624;10.106;2022-09-09T06:04:38;28.60;;;14.60;;
4921;SDS011;16625;53.624;10.106;2022-09-09T06:07:07;27.17;;;16.20;;
4921;SDS011;16625;53.624;10.106;2022-09-09T06:09:35;27.67;;;15.60;;
4921;SDS011;16625;53.624;10.106;2022-09-09T06:12:02;28.67;;;15.10;;
4921;SDS011;16625;53.624;10.106;2022-09-09T06:14:29;23.67;;;15.17;;
4921;SDS011;16625;53.624;10.106;2022-09-09T06:16:56;25.77;;;14.03;;
4921;SDS011;16625;53.624;10.106;2022-09-09T06:19:23;24.07;;;13.13;;
4921;SDS011;16625;53.624;10.106;2022-09-09T06:21:51;18.57;;;12.80;;
4921;SDS011;16625;53.624;10.106;2022-09-09T06:24:19;20.07;;;11.87;;
4921;SDS011;16625;53.624;10.106;2022-09-09T06:26:47;21.40;;;12.10;;
4921;SDS011;16625;53.624;10.106;2022-09-09T06:29:14;16.80;;;11.70;;
4921;SDS011;16625;53.624;10.106;2022-09-09T06:31:41;20.97;;;10.97;;
4921;SDS011;16625;53.624;10.106;2022-09-09T06:34:08;17.40;;;11.40;;
4921;SDS011;16625;53.624;10.106;2022-09-09T06:36:35;26.67;;;12.07;;
4921;SDS011;16625;53.624;10.106;2022-09-09T06:39:04;17.00;;;10.60;;
4921;SDS011;16625;53.624;10.106;2022-09-09T06:41:33;21.00;;;12.20;;
4921;SDS011;16625;53.624;10.106;2022-09-09T06:44:00;16.27;;;11.23;;
4921;SDS011;16625;53.624;10.106;2022-09-09T06:46:27;23.37;;;11.10;;
4921;SDS011;16625;53.624;10.106;2022-09-09T06:48:55;16.70;;;10.60;;
4921;SDS011;16625;53.624;10.106;2022-09-09T06:51:26;13.70;;;11.13;;
4921;SDS011;16625;53.624;10.106;2022-09-09T06:53:55;15.70;;;10.97;;
4921;SDS011;16625;53.624;10.106;2022-09-09T06:56:23;15.30;;;10.40;;
4921;SDS011;16625;53.624;10.106;2022-09-09T06:58:52;20.17;;;9.63;;
4921;SDS011;16625;53.624;10.106;2022-09-09T07:01:21;12.53;;;10.43;;
4921;SDS011;16625;53.624;10.106;2022-09-09T07:03:49;15.00;;;10.90;;
4921;SDS011;16625;53.624;10.106;2022-09-09T07:06:18;16.93;;;10.90;;
4921;SDS011;16625;53.624;10.106;2022-09-09T07:08:49;21.93;;;10.50;;
4921;SDS011;16625;53.624;10.106;2022-09-09T07:11:17;16.40;;;9.70;;
4921;SDS011;16625;53.624;10.106;2022-09-09T07:13:45;16.10;;;10.10;;
4921;SDS011;16625;53.624;10.106;2022-09-09T07:16:14;16.20;;;10.70;;
4921;SDS011;16625;53.624;10.106;2022-09-09T07:18:43;17.03;;;10.77;;
4921;SDS011;16625;53.624;10.106;2022-09-09T07:21:11;14.80;;;9.10;;
4921;SDS011;16625;53.624;10.106;2022-09-09T07:23:39;14.97;;;8.63;;
4921;SDS011;16625;53.624;10.106;2022-09-09T07:26:10;13.80;;;10.57;;
4921;SDS011;16625;53.624;10.106;2022-09-09T07:28:38;15.70;;;9.53;;
4921;SDS011;16625;53.624;10.106;2022-09-09T07:31:06;12.53;;;9.30;;
4921;SDS011;16625;53.624;10.106;2022-09-09T07:33:34;15.03;;;9.97;;
4921;SDS011;16625;53.624;10.106;2022-09-09T07:36:03;16.67;;;8.80;;
4921;SDS011;16625;53.624;10.106;2022-09-09T07:38:32;12.93;;;9.27;;
4921;SDS011;16625;53.624;10.106;2022-09-09T07:41:04;11.23;;;8.60;;
4921;SDS011;16625;53.624;10.106;2022-09-09T07:43:33;15.17;;;9.93;;
4921;SDS011;16625;53.624;10.106;2022-09-09T07:46:00;18.40;;;8.37;;
4921;SDS011;16625;53.624;10.106;2022-09-09T07:48:27;14.43;;;9.10;;
4921;SDS011;16625;53.624;10.106;2022-09-09T07:51:04;14.07;;;8.43;;
4921;SDS011;16625;53.624;10.106;2022-09-09T07:53:32;12.87;;;8.77;;
4921;SDS011;16625;53.624;10.106;2022-09-09T07:56:05;19.37;;;8.37;;
4921;SDS011;16625;53.624;10.106;2022-09-09T07:58:34;10.23;;;8.53;;
4921;SDS011;16625;53.624;10.106;2022-09-09T08:01:05;10.43;;;7.50;;
4921;SDS011;16625;53.624;10.106;2022-09-09T08:03:34;14.90;;;8.07;;
4921;SDS011;16625;53.624;10.106;2022-09-09T08:06:01;13.03;;;8.07;;
4921;SDS011;16625;53.624;10.106;2022-09-09T08:08:32;9.20;;;6.70;;
4921;SDS011;16625;53.624;10.106;2022-09-09T08:11:06;9.57;;;6.23;;
4921;SDS011;16625;53.624;10.106;2022-09-09T08:13:35;10.87;;;6.20;;
4921;SDS011;16625;53.624;10.106;2022-09-09T08:16:09;10.60;;;7.10;;
4921;SDS011;16625;53.624;10.106;2022-09-09T08:18:37;7.70;;;5.83;;
4921;SDS011;16625;53.624;10.106;2022-09-09T08:21:10;7.77;;;5.80;;
4921;SDS011;16625;53.624;10.106;2022-09-09T08:23:38;14.20;;;5.17;;
4921;SDS011;16625;53.624;10.106;2022-09-09T08:26:06;7.57;;;5.83;;
4921;SDS011;16625;53.624;10.106;2022-09-09T08:28:35;8.20;;;5.70;;
4921;SDS011;16625;53.624;10.106;2022-09-09T08:31:07;13.93;;;4.97;;
4921;SDS011;16625;53.624;10.106;2022-09-09T08:33:35;9.27;;;5.00;;
4921;SDS011;16625;53.624;10.106;2022-09-09T08:36:03;8.73;;;6.50;;
4921;SDS011;16625;53.624;10.106;2022-09-09T08:38:32;7.53;;;4.40;;
4921;SDS011;16625;53.624;10.106;2022-09-09T08:41:04;8.33;;;5.13;;
4921;SDS011;16625;53.624;10.106;2022-09-09T08:43:42;9.20;;;5.77;;
4921;SDS011;16625;53.624;10.106;2022-09-09T08:46:13;10.83;;;6.00;;
4921;SDS011;16625;53.624;10.106;2022-09-09T08:48:48;8.27;;;5.43;;
4921;SDS011;16625;53.624;10.106;2022-09-09T08:51:23;5.77;;;5.03;;
4921;SDS011;16625;53.624;10.106;2022-09-09T08:53:55;13.10;;;6.20;;
4921;SDS011;16625;53.624;10.106;2022-09-09T08:56:25;7.87;;;5.13;;
4921;SDS011;16625;53.624;10.106;2022-09-09T08:58:54;8.33;;;6.57;;
4921;SDS011;16625;53.624;10.106;2022-09-09T09:04:41;11.67;;;5.40;;
4921;SDS011;16625;53.624;10.106;2022-09-09T09:07:21;8.30;;;4.67;;
4921;SDS011;16625;53.624;10.106;2022-09-09T09:10:00;5.57;;;4.20;;
4921;SDS011;16625;53.624;10.106;2022-09-09T09:12:32;5.87;;;4.57;;
4921;SDS011;16625;53.624;10.106;2022-09-09T09:15:05;7.67;;;4.40;;
4921;SDS011;16625;53.624;10.106;2022-09-09T09:17:42;6.47;;;4.80;;
4921;SDS011;16625;53.624;10.106;2022-09-09T09:20:11;6.63;;;5.40;;
4921;SDS011;16625;53.624;10.106;2022-09-09T09:22:42;8.57;;;5.27;;
4921;SDS011;16625;53.624;10.106;2022-09-09T09:25:16;6.80;;;5.07;;
4921;SDS011;16625;53.624;10.106;2022-09-09T09:27:47;10.63;;;4.47;;
4921;SDS011;16625;53.624;10.106;2022-09-09T09:30:24;14.17;;;5.17;;
4921;SDS011;16625;53.624;10.106;2022-09-09T09:32:58;7.07;;;3.93;;
4921;SDS011;16625;53.624;10.106;2022-09-09T09:35:28;5.67;;;4.30;;
4921;SDS011;16625;53.624;10.106;2022-09-09T09:37:55;12.43;;;4.20;;
4921;SDS011;16625;53.624;10.106;2022-09-09T09:40:23;5.90;;;4.30;;
4921;SDS011;16625;53.624;10.106;2022-09-09T09:42:51;6.47;;;4.10;;
4921;SDS011;16625;53.624;10.106;2022-09-09T09:45:26;5.00;;;3.97;;
4921;SDS011;16625;53.624;10.106;2022-09-09T09:47:58;6.10;;;3.33;;
4921;SDS011;16625;53.624;10.106;2022-09-09T09:50:27;10.53;;;4.67;;
4921;SDS011;16625;53.624;10.106;2022-09-09T09:52:55;6.10;;;3.93;;
4921;SDS011;16625;53.624;10.106;2022-09-09T09:55:26;5.83;;;3.63;;
4921;SDS011;16625;53.624;10.106;2022-09-09T09:58:05;5.80;;;3.60;;
4921;SDS011;16625;53.624;10.106;2022-09-09T10:00:33;7.63;;;3.07;;
4921;SDS011;16625;53.624;10.106;2022-09-09T10:03:00;6.13;;;3.03;;
4921;SDS011;16625;53.624;10.106;2022-09-09T10:05:28;9.00;;;2.70;;
4921;SDS011;16625;53.624;10.106;2022-09-09T10:08:01;4.20;;;3.00;;
4921;SDS011;16625;53.624;10.106;2022-09-09T10:10:36;4.07;;;2.73;;
4921;SDS011;16625;53.624;10.106;2022-09-09T10:13:15;4.53;;;2.50;;
4921;SDS011;16625;53.624;10.106;2022-09-09T10:15:47;3.30;;;2.33;;
4921;SDS011;16625;53.624;10.106;2022-09-09T10:21:20;4.90;;;3.23;;
4921;SDS011;16625;53.624;10.106;2022-09-09T10:24:02;6.37;;;3.07;;
4921;SDS011;16625;53.624;10.106;2022-09-09T10:26:42;6.30;;;2.80;;
4921;SDS011;16625;53.624;10.106;2022-09-09T10:29:21;5.50;;;2.57;;
4921;SDS011;16625;53.624;10.106;2022-09-09T10:32:01;7.93;;;3.23;;
4921;SDS011;16625;53.624;10.106;2022-09-09T10:34:45;7.10;;;2.97;;
4921;SDS011;16625;53.624;10.106;2022-09-09T10:37:25;5.03;;;2.70;;
4921;SDS011;16625;53.624;10.106;2022-09-09T10:40:08;2.67;;;1.93;;
4921;SDS011;16625;53.624;10.106;2022-09-09T10:42:50;3.50;;;2.60;;
4921;SDS011;16625;53.624;10.106;2022-09-09T10:45:20;2.93;;;2.40;;
4921;SDS011;16625;53.624;10.106;2022-09-09T10:48:02;2.93;;;2.00;;
4921;SDS011;16625;53.624;10.106;2022-09-09T10:50:52;3.27;;;2.30;;
4921;SDS011;16625;53.624;10.106;2022-09-09T10:53:28;6.90;;;2.30;;
4921;SDS011;16625;53.624;10.106;2022-09-09T10:56:04;4.70;;;2.03;;
4921;SDS011;16625;53.624;10.106;2022-09-09T10:58:37;6.47;;;1.90;;
4921;SDS011;16625;53.624;10.106;2022-09-09T11:01:10;2.23;;;1.63;;
4921;SDS011;16625;53.624;10.106;2022-09-09T11:03:41;3.90;;;1.70;;
4921;SDS011;16625;53.624;10.106;2022-09-09T11:06:12;2.50;;;1.97;;
4921;SDS011;16625;53.624;10.106;2022-09-09T11:08:42;5.63;;;2.33;;
4921;SDS011;16625;53.624;10.106;2022-09-09T11:11:10;2.33;;;1.60;;
4921;SDS011;16625;53.624;10.106;2022-09-09T11:13:45;2.20;;;1.67;;
4921;SDS011;16625;53.624;10.106;2022-09-09T11:16:19;2.33;;;1.73;;
4921;SDS011;16625;53.624;10.106;2022-09-09T11:18:53;4.53;;;2.10;;
4921;SDS011;16625;53.624;10.106;2022-09-09T11:21:28;4.07;;;2.20;;
4921;SDS011;16625;53.624;10.106;2022-09-09T11:23:59;5.20;;;2.03;;
4921;SDS011;16625;53.624;10.106;2022-09-09T11:26:32;2.20;;;1.77;;
4921;SDS011;16625;53.624;10.106;2022-09-09T11:29:28;4.43;;;2.20;;
4921;SDS011;16625;53.624;10.106;2022-09-09T11:32:24;4.70;;;1.90;;
4921;SDS011;16625;53.624;10.106;2022-09-09T11:35:12;3.47;;;1.77;;
4921;SDS011;16625;53.624;10.106;2022-09-09T11:37:57;2.27;;;2.07;;
4921;SDS011;16625;53.624;10.106;2022-09-09T11:40:39;2.30;;;2.00;;
4921;SDS011;16625;53.624;10.106;2022-09-09T11:43:09;7.57;;;2.17;;
4921;SDS011;16625;53.624;10.106;2022-09-09T11:45:39;2.97;;;2.00;;
4921;SDS011;16625;53.624;10.106;2022-09-09T11:48:20;3.60;;;2.10;;
4921;SDS011;16625;53.624;10.106;2022-09-09T11:50:57;2.97;;;1.93;;
4921;SDS011;16625;53.624;10.106;2022-09-09T11:53:25;3.07;;;1.90;;
4921;SDS011;16625;53.624;10.106;2022-09-09T11:58:54;2.97;;;2.03;;
4921;SDS011;16625;53.624;10.106;2022-09-09T12:01:28;2.13;;;1.60;;
4921;SDS011;16625;53.624;10.106;2022-09-09T12:04:14;3.27;;;1.87;;
4921;SDS011;16625;53.624;10.106;2022-09-09T12:06:55;4.53;;;1.93;;
4921;SDS011;16625;53.624;10.106;2022-09-09T12:09:27;5.53;;;2.30;;
4921;SDS011;16625;53.624;10.106;2022-09-09T12:12:07;5.63;;;2.40;;
4921;SDS011;16625;53.624;10.106;2022-09-09T12:14:55;7.57;;;2.97;;
4921;SDS011;16625;53.624;10.106;2022-09-09T12:17:26;5.73;;;2.20;;
4921;SDS011;16625;53.624;10.106;2022-09-09T12:20:08;2.73;;;2.03;;
4921;SDS011;16625;53.624;10.106;2022-09-09T12:22:44;2.50;;;1.73;;
4921;SDS011;16625;53.624;10.106;2022-09-09T12:25:28;3.70;;;2.07;;
4921;SDS011;16625;53.624;10.106;2022-09-09T12:28:04;2.37;;;1.90;;
4921;SDS011;16625;53.624;10.106;2022-09-09T12:30:37;5.97;;;2.20;;
4921;SDS011;16625;53.624;10.106;2022-09-09T12:33:17;5.90;;;2.20;;
4921;SDS011;16625;53.624;10.106;2022-09-09T12:35:45;2.33;;;1.70;;
4921;SDS011;16625;53.624;10.106;2022-09-09T12:38:19;2.73;;;1.70;;
4921;SDS011;16625;53.624;10.106;2022-09-09T12:40:54;4.70;;;2.23;;
4921;SDS011;16625;53.624;10.106;2022-09-09T12:43:23;3.77;;;2.10;;
4921;SDS011;16625;53.624;10.106;2022-09-09T12:45:51;6.50;;;2.17;;
4921;SDS011;16625;53.624;10.106;2022-09-09T12:48:24;4.80;;;2.53;;
4921;SDS011;16625;53.624;10.106;2022-09-09T12:50:59;5.83;;;2.50;;
4921;SDS011;16625;53.624;10.106;2022-09-09T12:53:28;3.73;;;2.13;;
4921;SDS011;16625;53.624;10.106;2022-09-09T12:55:58;8.87;;;2.40;;
4921;SDS011;16625;53.624;10.106;2022-09-09T12:58:27;6.60;;;2.90;;
4921;SDS011;16625;53.624;10.106;2022-09-09T13:00:58;3.73;;;2.80;;
4921;SDS011;16625;53.624;10.106;2022-09-09T13:03:27;3.37;;;2.30;;
4921;SDS011;16625;53.624;10.106;2022-09-09T13:05:57;3.27;;;2.70;;
4921;SDS011;16625;53.624;10.106;2022-09-09T13:08:25;6.43;;;2.53;;
4921;SDS011;16625;53.624;10.106;2022-09-09T13:10:53;9.17;;;2.43;;
4921;SDS011;16625;53.624;10.106;2022-09-09T13:13:26;4.13;;;2.20;;
4921;SDS011;16625;53.624;10.106;2022-09-09T13:15:56;4.70;;;2.23;;
4921;SDS011;16625;53.624;10.106;2022-09-09T13:18:24;4.90;;;2.07;;
4921;SDS011;16625;53.624;10.106;2022-09-09T13:20:55;3.90;;;2.57;;
4921;SDS011;16625;53.624;10.106;2022-09-09T13:23:24;4.00;;;2.67;;
4921;SDS011;16625;53.624;10.106;2022-09-09T13:25:55;3.50;;;2.40;;
4921;SDS011;16625;53.624;10.106;2022-09-09T13:28:24;5.63;;;2.80;;
4921;SDS011;16625;53.624;10.106;2022-09-09T13:30:55;5.90;;;2.50;;
4921;SDS011;16625;53.624;10.106;2022-09-09T13:33:30;9.03;;;3.37;;
4921;SDS011;16625;53.624;10.106;2022-09-09T13:35:59;3.23;;;2.50;;
4921;SDS011;16625;53.624;10.106;2022-09-09T13:38:29;8.70;;;2.90;;
4921;SDS011;16625;53.624;10.106;2022-09-09T13:41:00;4.00;;;2.77;;
4921;SDS011;16625;53.624;10.106;2022-09-09T13:43:30;3.60;;;2.40;;
4921;SDS011;16625;53.624;10.106;2022-09-09T13:46:00;8.30;;;2.70;;
4921;SDS011;16625;53.624;10.106;2022-09-09T13:48:29;3.80;;;2.27;;
4921;SDS011;16625;53.624;10.106;2022-09-09T13:50:57;2.90;;;2.17;;
4921;SDS011;16625;53.624;10.106;2022-09-09T13:53:29;5.87;;;3.03;;
4921;SDS011;16625;53.624;10.106;2022-09-09T13:55:56;5.77;;;3.07;;
4921;SDS011;16625;53.624;10.106;2022-09-09T13:58:24;9.30;;;3.43;;
4921;SDS011;16625;53.624;10.106;2022-09-09T14:00:52;4.70;;;3.40;;
4921;SDS011;16625;53.624;10.106;2022-09-09T14:03:19;5.60;;;3.50;;
4921;SDS011;16625;53.624;10.106;2022-09-09T14:05:49;6.40;;;3.80;;
4921;SDS011;16625;53.624;10.106;2022-09-09T14:08:22;6.60;;;3.77;;
4921;SDS011;16625;53.624;10.106;2022-09-09T14:10:51;9.53;;;3.97;;
4921;SDS011;16625;53.624;10.106;2022-09-09T14:13:23;5.03;;;3.73;;
4921;SDS011;16625;53.624;10.106;2022-09-09T14:15:50;8.63;;;3.70;;
4921;SDS011;16625;53.624;10.106;2022-09-09T14:18:17;8.03;;;4.10;;
4921;SDS011;16625;53.624;10.106;2022-09-09T14:20:44;7.80;;;4.43;;
4921;SDS011;16625;53.624;10.106;2022-09-09T14:23:12;6.97;;;4.17;;
4921;SDS011;16625;53.624;10.106;2022-09-09T14:25:41;11.60;;;4.93;;
4921;SDS011;16625;53.624;10.106;2022-09-09T14:28:12;6.90;;;4.30;;
4921;SDS011;16625;53.624;10.106;2022-09-09T14:30:40;7.60;;;4.43;;
4921;SDS011;16625;53.624;10.106;2022-09-09T14:33:09;13.53;;;4.40;;
4921;SDS011;16625;53.624;10.106;2022-09-09T14:35:37;11.23;;;4.90;;
4921;SDS011;16625;53.624;10.106;2022-09-09T14:38:05;7.77;;;4.70;;
4921;SDS011;16625;53.624;10.106;2022-09-09T14:40:33;7.93;;;5.13;;
4921;SDS011;16625;53.624;10.106;2022-09-09T14:43:01;7.07;;;5.20;;
4921;SDS011;16625;53.624;10.106;2022-09-09T14:45:28;6.93;;;4.67;;
4921;SDS011;16625;53.624;10.106;2022-09-09T14:47:55;5.10;;;4.30;;
4921;SDS011;16625;53.624;10.106;2022-09-09T14:50:22;4.37;;;3.90;;
4921;SDS011;16625;53.624;10.106;2022-09-09T14:52:50;5.00;;;4.17;;
4921;SDS011;16625;53.624;10.106;2022-09-09T14:55:17;5.90;;;4.60;;
4921;SDS011;16625;53.624;10.106;2022-09-09T14:57:45;11.27;;;3.93;;
4921;SDS011;16625;53.624;10.106;2022-09-09T15:00:12;4.20;;;3.50;;
4921;SDS011;16625;53.624;10.106;2022-09-09T15:02:39;8.03;;;3.70;;
4921;SDS011;16625;53.624;10.106;2022-09-09T15:05:07;6.13;;;3.67;;